Time,TemperatureF,DewpointF,PressureIn,WindDirection,WindDirectionDegrees,WindSpeedMPH,WindSpeedGustMPH,Humidity,HourlyPrecipIn,Conditions,Clouds,dailyrainin,SoftwareType,DateUTC
2013-03-31 00:03:00,38.0,-99.9,30.05,WNW,292,0.0,-999.0,49,-99.99,,,-99.99,,2013-03-31 04:03:00,
2013-03-31 00:13:00,38.0,21.0,30.05,WNW,292,0.0,-999.0,49,-99.99,,,-99.99,,2013-03-31 04:13:00,
2013-03-31 00:23:00,38.0,21.0,30.05,WNW,292,0.0,-999.0,49,-99.99,,,-99.99,,2013-03-31 04:23:00,
2013-03-31 00:33:00,39.0,21.0,30.05,WNW,292,0.0,-999.0,48,-99.99,,,-99.99,,2013-03-31 04:33:00,
2013-03-31 00:42:00,39.0,21.0,30.05,WNW,292,0.0,-999.0,48,-99.99,,,-99.99,,2013-03-31 04:42:00,
2013-03-31 00:53:00,38.0,22.0,30.05,WNW,292,0.0,-999.0,51,-99.99,,,-99.99,,2013-03-31 04:53:00,
2013-03-31 01:02:00,38.0,22.0,30.06,WNW,292,0.0,-999.0,51,-99.99,,,-99.99,,2013-03-31 05:02:00,
2013-03-31 01:12:00,38.0,22.0,30.06,WNW,292,0.0,-999.0,51,-99.99,,,-99.99,,2013-03-31 05:12:00,
2013-03-31 01:22:00,36.0,21.0,30.06,WNW,292,0.0,-999.0,53,-99.99,,,-99.99,,2013-03-31 05:22:00,
2013-03-31 01:32:00,36.0,20.0,30.05,South,179,1.0,-999.0,51,-99.99,,,-99.99,,2013-03-31 05:32:00,
2013-03-31 01:42:00,36.0,20.0,30.05,South,179,1.0,-999.0,51,-99.99,,,-99.99,,2013-03-31 05:42:00,
2013-03-31 01:53:00,36.0,20.0,30.05,South,179,0.0,-999.0,51,-99.99,,,-99.99,,2013-03-31 05:53:00,
2013-03-31 02:02:00,36.0,21.0,30.05,South,179,0.0,-999.0,54,-99.99,,,-99.99,,2013-03-31 06:02:00,
2013-03-31 02:12:00,36.0,21.0,30.05,South,179,0.0,-999.0,54,-99.99,,,-99.99,,2013-03-31 06:12:00,
2013-03-31 02:22:00,36.0,21.0,30.04,South,179,0.0,-999.0,53,-99.99,,,-99.99,,2013-03-31 06:22:00,
2013-03-31 02:32:00,36.0,22.0,30.02,South,179,0.0,-999.0,56,-99.99,,,-99.99,,2013-03-31 06:32:00,
2013-03-31 02:42:00,36.0,22.0,30.02,South,179,0.0,-999.0,56,-99.99,,,-99.99,,2013-03-31 06:42:00,
2013-03-31 02:52:00,35.0,20.0,30.02,South,179,0.0,-999.0,55,-99.99,,,-99.99,,2013-03-31 06:52:00,
2013-03-31 03:02:00,34.0,20.0,30.02,South,179,0.0,-999.0,56,-99.99,,,-99.99,,2013-03-31 07:02:00,
2013-03-31 03:12:00,34.0,20.0,30.02,South,179,0.0,-999.0,56,-99.99,,,-99.99,,2013-03-31 07:12:00,
2013-03-31 03:22:00,34.0,21.0,30.02,South,179,0.0,-999.0,59,-99.99,,,-99.99,,2013-03-31 07:22:00,
2013-03-31 03:33:00,33.0,19.0,30.02,South,179,0.0,-999.0,57,-99.99,,,-99.99,,2013-03-31 07:33:00,
2013-03-31 03:43:00,33.0,19.0,30.02,South,179,0.0,-999.0,57,-99.99,,,-99.99,,2013-03-31 07:43:00,
2013-03-31 03:53:00,33.0,21.0,30.02,South,179,0.0,-999.0,61,-99.99,,,-99.99,,2013-03-31 07:53:00,
2013-03-31 04:02:00,31.0,20.0,30.01,South,179,0.0,-999.0,64,-99.99,,,-99.99,,2013-03-31 08:02:00,
2013-03-31 04:12:00,31.0,20.0,30.01,South,179,0.0,-999.0,64,-99.99,,,-99.99,,2013-03-31 08:12:00,
2013-03-31 04:22:00,32.0,20.0,30.01,South,179,0.0,-999.0,62,-99.99,,,-99.99,,2013-03-31 08:22:00,
2013-03-31 04:32:00,32.0,21.0,30.02,South,179,0.0,-999.0,63,-99.99,,,-99.99,,2013-03-31 08:32:00,
2013-03-31 04:42:00,32.0,21.0,30.02,South,179,0.0,-999.0,63,-99.99,,,-99.99,,2013-03-31 08:42:00,
2013-03-31 04:52:00,31.0,20.0,30.02,South,179,0.0,-999.0,63,-99.99,,,-99.99,,2013-03-31 08:52:00,
2013-03-31 05:02:00,31.0,21.0,30.02,South,179,0.0,-999.0,65,-99.99,,,-99.99,,2013-03-31 09:02:00,
2013-03-31 05:12:00,31.0,21.0,30.02,South,179,0.0,-999.0,65,-99.99,,,-99.99,,2013-03-31 09:12:00,
2013-03-31 05:22:00,30.0,20.0,30.02,South,179,0.0,-999.0,66,-99.99,,,-99.99,,2013-03-31 09:22:00,
2013-03-31 05:33:00,30.0,21.0,30.02,South,179,0.0,-999.0,68,-99.99,,,-99.99,,2013-03-31 09:33:00,
2013-03-31 05:42:00,30.0,21.0,30.02,South,179,0.0,-999.0,68,-99.99,,,-99.99,,2013-03-31 09:42:00,
2013-03-31 05:53:00,30.0,20.0,30.02,South,179,0.0,-999.0,66,-99.99,,,-99.99,,2013-03-31 09:53:00,
2013-03-31 06:03:00,30.0,21.0,30.02,South,179,0.0,-999.0,68,-99.99,,,-99.99,,2013-03-31 10:03:00,
2013-03-31 06:13:00,30.0,21.0,30.02,South,179,0.0,-999.0,68,-99.99,,,-99.99,,2013-03-31 10:13:00,
2013-03-31 06:24:00,29.0,20.0,30.01,South,179,0.0,-999.0,69,-99.99,,,-99.99,,2013-03-31 10:24:00,
2013-03-31 06:32:00,30.0,20.0,30.01,South,179,0.0,-999.0,67,-99.99,,,-99.99,,2013-03-31 10:32:00,
2013-03-31 06:42:00,30.0,20.0,30.01,South,179,0.0,-999.0,67,-99.99,,,-99.99,,2013-03-31 10:42:00,
2013-03-31 06:53:00,31.0,20.0,30.01,South,179,0.0,-999.0,64,-99.99,,,-99.99,,2013-03-31 10:53:00,
2013-03-31 07:02:00,30.0,21.0,30.01,South,179,0.0,-999.0,68,-99.99,,,-99.99,,2013-03-31 11:02:00,
2013-03-31 07:12:00,30.0,21.0,30.01,South,179,0.0,-999.0,68,-99.99,,,-99.99,,2013-03-31 11:12:00,
2013-03-31 07:23:00,29.0,21.0,30.02,South,179,0.0,-999.0,73,-99.99,,,-99.99,,2013-03-31 11:23:00,
2013-03-31 07:32:00,28.0,20.0,30.02,SSE,168,2.0,-999.0,73,-99.99,,,-99.99,,2013-03-31 11:32:00,
2013-03-31 07:42:00,28.0,20.0,30.02,SSE,168,2.0,-999.0,73,-99.99,,,-99.99,,2013-03-31 11:42:00,
2013-03-31 07:53:00,29.0,21.0,30.02,SSE,168,0.0,-999.0,71,-99.99,,,-99.99,,2013-03-31 11:53:00,
2013-03-31 08:03:00,31.0,23.0,30.02,SSE,168,0.0,-999.0,72,-99.99,,,-99.99,,2013-03-31 12:03:00,
2013-03-31 08:12:00,31.0,23.0,30.02,SSE,168,0.0,-999.0,72,-99.99,,,-99.99,,2013-03-31 12:12:00,
2013-03-31 08:22:00,32.0,22.0,30.01,SSE,168,0.0,-999.0,67,-99.99,,,-99.99,,2013-03-31 12:22:00,
2013-03-31 08:33:00,34.0,23.0,30.01,SSE,168,0.0,-999.0,63,-99.99,,,-99.99,,2013-03-31 12:33:00,
2013-03-31 08:42:00,34.0,23.0,30.01,SSE,168,0.0,-999.0,63,-99.99,,,-99.99,,2013-03-31 12:42:00,
2013-03-31 08:53:00,37.0,25.0,30.01,SSE,160,0.0,-999.0,61,-99.99,,,-99.99,,2013-03-31 12:53:00,
2013-03-31 09:02:00,37.0,23.0,30.00,SSE,157,0.0,-999.0,57,-99.99,,,-99.99,,2013-03-31 13:02:00,
2013-03-31 09:12:00,37.0,23.0,30.00,SSE,157,0.0,-999.0,57,-99.99,,,-99.99,,2013-03-31 13:12:00,
2013-03-31 09:22:00,39.0,25.0,30.00,SSE,157,0.0,-999.0,57,-99.99,,,-99.99,,2013-03-31 13:22:00,
2013-03-31 09:32:00,41.0,26.0,30.00,SSE,152,0.0,-999.0,55,-99.99,,,-99.99,,2013-03-31 13:32:00,
2013-03-31 09:42:00,41.0,26.0,30.00,SSE,152,0.0,-999.0,55,-99.99,,,-99.99,,2013-03-31 13:42:00,
2013-03-31 09:53:00,42.0,23.0,29.99,SW,236,1.0,-999.0,46,-99.99,,,-99.99,,2013-03-31 13:53:00,
2013-03-31 10:02:00,43.0,23.0,29.99,SSW,202,1.0,-999.0,45,-99.99,,,-99.99,,2013-03-31 14:02:00,
2013-03-31 10:12:00,43.0,23.0,29.99,SSW,202,1.0,-999.0,45,-99.99,,,-99.99,,2013-03-31 14:12:00,
2013-03-31 10:22:00,45.0,24.0,29.99,ESE,112,1.0,-999.0,43,-99.99,,,-99.99,,2013-03-31 14:22:00,
2013-03-31 10:32:00,46.0,22.0,29.98,SSE,164,3.0,-999.0,38,-99.99,,,-99.99,,2013-03-31 14:32:00,
2013-03-31 10:42:00,46.0,22.0,29.98,SSE,164,3.0,-999.0,38,-99.99,,,-99.99,,2013-03-31 14:42:00,
2013-03-31 10:52:00,46.0,22.0,29.98,SW,233,3.0,-999.0,38,-99.99,,,-99.99,,2013-03-31 14:52:00,
2013-03-31 11:03:00,47.0,22.0,29.98,WSW,256,3.0,-999.0,37,-99.99,,,-99.99,,2013-03-31 15:03:00,
2013-03-31 11:13:00,47.0,22.0,29.98,WSW,256,3.0,-999.0,37,-99.99,,,-99.99,,2013-03-31 15:13:00,
2013-03-31 11:22:00,49.0,23.0,30.01,SSE,152,1.0,-999.0,36,-99.99,,,-99.99,,2013-03-31 15:22:00,
2013-03-31 11:33:00,50.0,22.0,30.01,SW,223,3.0,-999.0,33,-99.99,,,-99.99,,2013-03-31 15:33:00,
2013-03-31 11:43:00,50.0,22.0,30.01,SW,223,3.0,-999.0,33,-99.99,,,-99.99,,2013-03-31 15:43:00,
2013-03-31 11:54:00,50.0,21.0,30.00,ESE,109,3.0,-999.0,32,-99.99,,,-99.99,,2013-03-31 15:54:00,
2013-03-31 12:03:00,51.0,22.0,29.99,SSW,192,2.0,-999.0,32,-99.99,,,-99.99,,2013-03-31 16:03:00,
2013-03-31 12:13:00,51.0,22.0,29.99,SSW,192,2.0,-999.0,32,-99.99,,,-99.99,,2013-03-31 16:13:00,
2013-03-31 12:23:00,51.0,21.0,29.99,WSW,243,4.0,-999.0,30,-99.99,,,-99.99,,2013-03-31 16:23:00,
2013-03-31 12:33:00,51.0,21.0,29.98,South,175,3.0,-999.0,31,-99.99,,,-99.99,,2013-03-31 16:33:00,
2013-03-31 12:43:00,51.0,21.0,29.98,South,175,3.0,-999.0,31,-99.99,,,-99.99,,2013-03-31 16:43:00,
2013-03-31 12:53:00,52.0,23.0,29.98,SSE,161,1.0,-999.0,32,-99.99,,,-99.99,,2013-03-31 16:53:00,
2013-03-31 13:03:00,52.0,23.0,29.97,SSW,200,3.0,-999.0,32,-99.99,,,-99.99,,2013-03-31 17:03:00,
2013-03-31 13:12:00,52.0,23.0,29.97,SSW,200,3.0,-999.0,32,-99.99,,,-99.99,,2013-03-31 17:12:00,
2013-03-31 13:23:00,53.0,22.0,29.95,SSE,168,2.0,-999.0,30,-99.99,,,-99.99,,2013-03-31 17:23:00,
2013-03-31 13:32:00,53.0,22.0,29.95,ESE,114,2.0,-999.0,29,-99.99,,,-99.99,,2013-03-31 17:32:00,
2013-03-31 13:43:00,53.0,22.0,29.95,ESE,114,2.0,-999.0,29,-99.99,,,-99.99,,2013-03-31 17:43:00,
2013-03-31 13:52:00,52.0,21.0,29.94,South,169,3.0,-999.0,29,-99.99,,,-99.99,,2013-03-31 17:52:00,
2013-03-31 14:03:00,51.0,24.0,29.94,WSW,246,2.0,-999.0,34,-99.99,,,-99.99,,2013-03-31 18:03:00,
2013-03-31 14:13:00,51.0,24.0,29.94,WSW,246,2.0,-999.0,34,-99.99,,,-99.99,,2013-03-31 18:13:00,
2013-03-31 14:22:00,51.0,21.0,29.93,SSW,202,3.0,-999.0,30,-99.99,,,-99.99,,2013-03-31 18:22:00,
2013-03-31 14:32:00,51.0,22.0,29.90,SSW,198,2.0,-999.0,32,-99.99,,,-99.99,,2013-03-31 18:32:00,
2013-03-31 14:42:00,51.0,22.0,29.90,SSW,198,2.0,-999.0,32,-99.99,,,-99.99,,2013-03-31 18:42:00,
2013-03-31 14:53:00,51.0,24.0,29.89,SSE,164,1.0,-999.0,34,-99.99,,,-99.99,,2013-03-31 18:53:00,
2013-03-31 15:03:00,51.0,24.0,29.88,WSW,257,1.0,-999.0,35,-99.99,,,-99.99,,2013-03-31 19:03:00,
2013-03-31 15:12:00,51.0,24.0,29.88,WSW,257,1.0,-999.0,35,-99.99,,,-99.99,,2013-03-31 19:12:00,
2013-03-31 15:22:00,52.0,25.0,29.87,SE,138,0.0,-999.0,35,-99.99,,,-99.99,,2013-03-31 19:22:00,
2013-03-31 15:33:00,53.0,26.0,29.86,SW,217,1.0,-999.0,35,-99.99,,,-99.99,,2013-03-31 19:33:00,
2013-03-31 15:43:00,53.0,26.0,29.86,SW,217,1.0,-999.0,35,-99.99,,,-99.99,,2013-03-31 19:43:00,
2013-03-31 15:54:00,53.0,25.0,29.86,SSE,167,2.0,-999.0,33,-99.99,,,-99.99,,2013-03-31 19:54:00,
2013-03-31 16:03:00,52.0,23.0,29.86,South,176,3.0,-999.0,32,-99.99,,,-99.99,,2013-03-31 20:03:00,
2013-03-31 16:12:00,52.0,23.0,29.86,South,176,3.0,-999.0,32,-99.99,,,-99.99,,2013-03-31 20:12:00,
2013-03-31 16:23:00,52.0,23.0,29.85,South,179,2.0,-999.0,32,-99.99,,,-99.99,,2013-03-31 20:23:00,
2013-03-31 16:33:00,52.0,24.0,29.85,SSW,206,3.0,-999.0,33,-99.99,,,-99.99,,2013-03-31 20:33:00,
2013-03-31 16:43:00,52.0,24.0,29.85,SSW,206,3.0,-999.0,33,-99.99,,,-99.99,,2013-03-31 20:43:00,
2013-03-31 16:53:00,52.0,25.0,29.84,WSW,240,1.0,-999.0,35,-99.99,,,-99.99,,2013-03-31 20:53:00,
2013-03-31 17:03:00,52.0,25.0,29.83,WSW,247,0.0,-999.0,35,-99.99,,,-99.99,,2013-03-31 21:03:00,
2013-03-31 17:13:00,52.0,25.0,29.83,WSW,247,0.0,-999.0,35,-99.99,,,-99.99,,2013-03-31 21:13:00,
2013-03-31 17:22:00,52.0,26.0,29.83,NW,322,1.0,-999.0,36,-99.99,,,-99.99,,2013-03-31 21:22:00,
2013-03-31 17:34:00,53.0,24.0,29.83,SSE,151,3.0,-999.0,32,-99.99,,,-99.99,,2013-03-31 21:34:00,
2013-03-31 17:43:00,53.0,24.0,29.83,SSE,151,3.0,-999.0,32,-99.99,,,-99.99,,2013-03-31 21:43:00,
2013-03-31 17:54:00,52.0,25.0,29.83,South,188,1.0,-999.0,34,-99.99,,,-99.99,,2013-03-31 21:54:00,
2013-03-31 18:04:00,51.0,24.0,29.83,South,174,2.0,-999.0,35,-99.99,,,-99.99,,2013-03-31 22:04:00,
2013-03-31 18:13:00,51.0,24.0,29.83,South,174,2.0,-999.0,35,-99.99,,,-99.99,,2013-03-31 22:13:00,
2013-03-31 18:23:00,50.0,25.0,29.83,SSW,198,1.0,-999.0,37,-99.99,,,-99.99,,2013-03-31 22:23:00,
2013-03-31 18:33:00,49.0,26.0,29.83,SW,227,1.0,-999.0,40,-99.99,,,-99.99,,2013-03-31 22:33:00,
2013-03-31 18:43:00,49.0,26.0,29.83,SW,227,1.0,-999.0,40,-99.99,,,-99.99,,2013-03-31 22:43:00,
2013-03-31 18:53:00,48.0,28.0,29.83,ESE,114,2.0,-999.0,45,-99.99,,,-99.99,,2013-03-31 22:53:00,
2013-03-31 19:03:00,46.0,31.0,29.84,SSW,200,2.0,-999.0,56,-99.99,,,-99.99,,2013-03-31 23:03:00,
2013-03-31 19:13:00,46.0,31.0,29.84,SSW,200,2.0,-999.0,56,-99.99,,,-99.99,,2013-03-31 23:13:00,
2013-03-31 19:22:00,44.0,36.0,29.85,SSW,208,3.0,-999.0,72,-99.99,,,-99.99,,2013-03-31 23:22:00,
2013-03-31 19:32:00,42.0,37.0,29.85,East,100,1.0,-999.0,83,-99.99,,,-99.99,,2013-03-31 23:32:00,
2013-03-31 19:42:00,42.0,37.0,29.85,East,100,1.0,-999.0,83,-99.99,,,-99.99,,2013-03-31 23:42:00,
2013-03-31 19:53:00,41.0,37.0,29.85,ESE,121,0.0,-999.0,87,-99.99,,,-99.99,,2013-03-31 23:53:00,
2013-03-31 20:02:00,40.0,38.0,29.84,East,99,0.0,-999.0,91,-99.99,,,-99.99,,2013-04-01 00:02:00,
2013-03-31 20:13:00,40.0,38.0,29.84,East,99,0.0,-999.0,91,-99.99,,,-99.99,,2013-04-01 00:13:00,
2013-03-31 20:22:00,40.0,38.0,29.83,NNE,28,0.0,-999.0,92,-99.99,,,-99.99,,2013-04-01 00:22:00,
2013-03-31 20:32:00,39.0,37.0,29.82,SE,131,0.0,-999.0,94,-99.99,,,-99.99,,2013-04-01 00:32:00,
2013-03-31 20:43:00,39.0,37.0,29.82,SE,131,0.0,-999.0,94,-99.99,,,-99.99,,2013-04-01 00:43:00,
2013-03-31 20:53:00,39.0,38.0,29.82,ESE,120,0.0,-999.0,95,-99.99,,,-99.99,,2013-04-01 00:53:00,
2013-03-31 21:03:00,39.0,38.0,29.81,North,11,0.0,-999.0,96,-99.99,,,-99.99,,2013-04-01 01:03:00,
2013-03-31 21:12:00,39.0,38.0,29.81,North,11,0.0,-999.0,96,-99.99,,,-99.99,,2013-04-01 01:12:00,
2013-03-31 21:23:00,38.0,37.0,29.80,SSE,152,0.0,-999.0,96,-99.99,,,-99.99,,2013-04-01 01:23:00,
2013-03-31 21:32:00,38.0,37.0,29.78,NE,55,0.0,-999.0,97,-99.99,,,-99.99,,2013-04-01 01:32:00,
2013-03-31 21:42:00,38.0,37.0,29.78,NE,55,0.0,-999.0,97,-99.99,,,-99.99,,2013-04-01 01:42:00,
2013-03-31 21:53:00,38.0,37.0,29.76,East,100,2.0,-999.0,97,-99.99,,,-99.99,,2013-04-01 01:53:00,
2013-03-31 22:03:00,38.0,37.0,29.75,East,95,0.0,-999.0,97,-99.99,,,-99.99,,2013-04-01 02:03:00,
2013-03-31 22:13:00,38.0,37.0,29.75,East,95,0.0,-999.0,97,-99.99,,,-99.99,,2013-04-01 02:13:00,
2013-03-31 22:23:00,39.0,38.0,29.73,ESE,109,1.0,-999.0,97,-99.99,,,-99.99,,2013-04-01 02:23:00,
2013-03-31 22:33:00,39.0,38.0,29.74,ESE,123,2.0,-999.0,96,-99.99,,,-99.99,,2013-04-01 02:33:00,
2013-03-31 22:42:00,39.0,38.0,29.74,ESE,123,2.0,-999.0,96,-99.99,,,-99.99,,2013-04-01 02:42:00,
2013-03-31 22:53:00,39.0,38.0,29.74,ESE,110,0.0,-999.0,95,-99.99,,,-99.99,,2013-04-01 02:53:00,
2013-03-31 23:03:00,39.0,38.0,29.75,ESE,120,0.0,-999.0,95,-99.99,,,-99.99,,2013-04-01 03:03:00,
2013-03-31 23:12:00,39.0,38.0,29.75,ESE,120,0.0,-999.0,95,-99.99,,,-99.99,,2013-04-01 03:12:00,
2013-03-31 23:23:00,39.0,38.0,29.74,SSE,150,0.0,-999.0,96,-99.99,,,-99.99,,2013-04-01 03:23:00,
2013-03-31 23:34:00,39.0,38.0,29.72,ENE,64,1.0,-999.0,96,-99.99,,,-99.99,,2013-04-01 03:34:00,
2013-03-31 23:43:00,39.0,38.0,29.72,ENE,64,1.0,-999.0,96,-99.99,,,-99.99,,2013-04-01 03:43:00,
2013-03-31 23:53:00,39.0,38.0,29.70,East,88,2.0,-999.0,96,-99.99,,,-99.99,,2013-04-01 03:53:00,